createdAt,value
2022-07-29T00:01:57.293Z,13.82
2022-07-29T00:04:27.131Z,14.63
2022-07-29T00:06:56.790Z,17.70
2022-07-29T00:09:26.570Z,17.95
2022-07-29T00:11:56.729Z,13.60
2022-07-29T00:14:26.833Z,15.07
2022-07-29T00:16:57.082Z,19.23
2022-07-29T00:19:27.178Z,19.67
2022-07-29T00:21:57.399Z,14.65
2022-07-29T00:24:27.455Z,17.70
2022-07-29T00:26:57.871Z,13.45
2022-07-29T00:29:35.487Z,14.20
2022-07-29T00:32:05.874Z,17.63
2022-07-29T00:34:55.288Z,15.05
2022-07-29T00:37:25.504Z,15.93
2022-07-29T00:39:55.714Z,22.33
2022-07-29T00:42:25.791Z,17.33
2022-07-29T00:44:58.825Z,19.73
2022-07-29T00:47:28.930Z,16.08
2022-07-29T00:49:59.242Z,16.73
2022-07-29T00:52:29.326Z,20.48
2022-07-29T00:55:00.941Z,19.05
2022-07-29T00:57:32.724Z,18.23
2022-07-29T01:00:02.789Z,21.98
2022-07-29T01:02:35.097Z,17.63
2022-07-29T01:05:06.698Z,17.52
2022-07-29T01:07:37.294Z,17.83
2022-07-29T01:10:07.680Z,19.90
2022-07-29T01:12:37.823Z,19.15
2022-07-29T01:15:08.840Z,15.55
2022-07-29T01:17:52.821Z,14.25
2022-07-29T01:20:43.959Z,11.02
2022-07-29T01:23:22.398Z,11.13
2022-07-29T01:25:55.895Z,19.17
2022-07-29T01:28:45.283Z,11.88
2022-07-29T01:31:25.034Z,12.27
2022-07-29T01:34:01.014Z,15.10
2022-07-29T01:36:37.357Z,11.88
2022-07-29T01:39:09.290Z,14.68
2022-07-29T01:41:40.309Z,11.18
2022-07-29T01:44:15.471Z,10.82
2022-07-29T01:46:47.839Z,16.13
2022-07-29T01:49:18.884Z,15.43
2022-07-29T01:51:56.517Z,7.70
2022-07-29T01:54:29.623Z,14.02
2022-07-29T01:57:00.101Z,12.38
2022-07-29T01:59:30.329Z,11.85
2022-07-29T02:02:01.890Z,11.30
2022-07-29T02:04:32.065Z,7.70
2022-07-29T02:07:05.385Z,17.13
2022-07-29T02:09:37.155Z,10.40
2022-07-29T02:12:07.672Z,8.35
2022-07-29T02:14:39.610Z,6.20
2022-07-29T02:17:09.921Z,16.65
2022-07-29T02:19:40.251Z,7.97
2022-07-29T02:22:10.429Z,5.47
2022-07-29T02:24:40.561Z,5.20
2022-07-29T02:27:10.786Z,5.22
2022-07-29T02:29:40.956Z,7.38
2022-07-29T02:32:11.117Z,10.27
2022-07-29T02:34:41.252Z,10.88
2022-07-29T02:37:12.497Z,10.10
2022-07-29T02:39:42.706Z,12.10
2022-07-29T02:42:13.643Z,17.75
2022-07-29T02:44:43.750Z,14.77
2022-07-29T02:47:32.075Z,13.95
2022-07-29T02:50:15.205Z,13.40
2022-07-29T02:52:47.109Z,15.60
2022-07-29T02:55:22.665Z,8.32
2022-07-29T02:58:05.966Z,20.75
2022-07-29T03:00:38.012Z,11.82
2022-07-29T03:03:10.286Z,13.45
2022-07-29T03:05:40.831Z,11.60
2022-07-29T03:08:12.389Z,10.43
2022-07-29T03:10:43.168Z,10.25
2022-07-29T03:13:14.541Z,9.77
2022-07-29T03:15:48.236Z,11.15
2022-07-29T03:18:18.696Z,9.05
2022-07-29T03:20:48.773Z,8.93
2022-07-29T03:23:23.006Z,9.38
2022-07-29T03:25:53.822Z,8.75
2022-07-29T03:28:26.970Z,10.98
2022-07-29T03:30:57.724Z,18.70
2022-07-29T03:33:31.136Z,7.43
2022-07-29T03:36:01.900Z,15.55
2022-07-29T03:38:32.802Z,6.03
2022-07-29T03:41:04.327Z,6.50
2022-07-29T03:43:35.512Z,5.20
2022-07-29T03:46:06.223Z,4.82
2022-07-29T03:48:40.346Z,7.53
2022-07-29T03:51:11.199Z,6.95
2022-07-29T03:53:41.441Z,8.98
2022-07-29T03:56:11.766Z,5.70
2022-07-29T03:58:41.941Z,3.20
2022-07-29T04:01:12.158Z,2.60
2022-07-29T04:03:42.442Z,4.32
2022-07-29T04:06:12.944Z,2.58
2022-07-29T04:08:43.213Z,3.05
2022-07-29T04:11:13.290Z,7.03
2022-07-29T04:13:43.452Z,4.85
2022-07-29T04:16:13.968Z,4.05
2022-07-29T04:18:44.275Z,2.10
2022-07-29T04:21:14.358Z,3.25
2022-07-29T04:23:52.819Z,9.07
2022-07-29T04:26:27.003Z,3.15
2022-07-29T04:28:57.196Z,2.80
2022-07-29T04:31:27.369Z,5.13
2022-07-29T04:33:57.465Z,4.10
2022-07-29T04:36:28.556Z,3.00
2022-07-29T04:39:00.074Z,5.63
2022-07-29T04:41:33.363Z,8.50
2022-07-29T04:44:07.439Z,5.22
2022-07-29T04:46:39.416Z,4.20
2022-07-29T04:49:16.970Z,3.65
2022-07-29T04:51:47.229Z,4.50
2022-07-29T04:54:17.739Z,8.07
2022-07-29T04:56:48.626Z,1.55
2022-07-29T04:59:19.367Z,1.05
2022-07-29T05:01:49.568Z,5.18
2022-07-29T05:04:20.580Z,1.73
2022-07-29T05:06:51.646Z,3.20
2022-07-29T05:09:21.772Z,16.05
2022-07-29T05:11:51.943Z,6.32
2022-07-29T05:14:22.650Z,3.25
2022-07-29T05:16:53.330Z,27.67
2022-07-29T05:19:23.496Z,6.05
2022-07-29T05:21:54.077Z,6.97
2022-07-29T05:24:24.599Z,10.27
2022-07-29T05:26:54.696Z,1.58
2022-07-29T05:29:44.843Z,1.75
2022-07-29T05:32:15.656Z,4.38
2022-07-29T05:34:50.813Z,3.97
2022-07-29T05:37:22.648Z,11.52
2022-07-29T05:39:56.741Z,7.35
2022-07-29T05:42:27.738Z,5.97
2022-07-29T05:45:00.086Z,5.18
2022-07-29T05:47:30.305Z,6.63
2022-07-29T05:50:00.441Z,3.72
2022-07-29T05:52:30.593Z,8.73
2022-07-29T05:55:00.734Z,4.55
2022-07-29T05:57:30.778Z,6.00
2022-07-29T06:00:00.951Z,3.35
2022-07-29T06:02:31.289Z,1.77
2022-07-29T06:05:02.268Z,4.00
2022-07-29T06:07:32.944Z,4.97
2022-07-29T06:10:04.180Z,2.20
2022-07-29T06:12:34.419Z,6.35
2022-07-29T06:15:04.461Z,4.05
2022-07-29T06:17:34.856Z,8.13
2022-07-29T06:20:07.539Z,6.15
2022-07-29T06:22:37.815Z,8.15
2022-07-29T06:25:08.310Z,3.88
2022-07-29T06:27:38.829Z,6.60
2022-07-29T06:30:09.884Z,3.22
2022-07-29T06:32:43.057Z,1.67
2022-07-29T06:35:38.666Z,3.17
2022-07-29T06:38:03.825Z,4.25
2022-07-29T06:41:03.251Z,5.60
2022-07-29T06:43:35.800Z,9.10
2022-07-29T06:46:21.616Z,7.25
2022-07-29T06:48:52.610Z,4.82
2022-07-29T06:51:23.900Z,15.32
2022-07-29T06:54:00.237Z,7.03
2022-07-29T06:56:38.897Z,6.53
2022-07-29T06:59:12.871Z,3.47
2022-07-29T07:01:43.968Z,6.10
2022-07-29T07:04:14.909Z,4.07
2022-07-29T07:06:45.432Z,7.25
2022-07-29T07:09:15.568Z,3.55
2022-07-29T07:11:45.802Z,3.17
2022-07-29T07:14:20.186Z,5.03
2022-07-29T07:16:50.863Z,4.05
2022-07-29T07:19:22.867Z,1.92
2022-07-29T07:21:53.013Z,4.68
2022-07-29T07:24:23.089Z,3.63
2022-07-29T07:26:53.453Z,2.03
2022-07-29T07:29:23.639Z,9.65
2022-07-29T07:31:57.522Z,2.65
2022-07-29T07:34:32.217Z,5.80
2022-07-29T07:37:02.422Z,7.18
2022-07-29T07:39:32.675Z,2.90
2022-07-29T07:42:02.820Z,4.55
2022-07-29T07:44:36.440Z,2.38
2022-07-29T07:47:12.699Z,3.22
2022-07-29T07:49:42.969Z,2.78
2022-07-29T07:52:15.292Z,4.05
2022-07-29T07:54:46.175Z,1.52
2022-07-29T07:57:16.391Z,3.55
2022-07-29T07:59:46.565Z,8.15
2022-07-29T08:02:16.838Z,7.18
2022-07-29T08:04:47.125Z,3.78
2022-07-29T08:07:17.728Z,1.20
2022-07-29T08:09:47.810Z,3.53
2022-07-29T08:12:17.856Z,3.22
2022-07-29T08:14:47.955Z,2.00
2022-07-29T08:17:18.044Z,3.42
2022-07-29T08:19:50.000Z,4.93
2022-07-29T08:22:20.070Z,3.90
2022-07-29T08:24:54.865Z,3.50
2022-07-29T08:27:43.856Z,5.57
2022-07-29T08:30:14.515Z,5.32
2022-07-29T08:32:53.602Z,6.47
2022-07-29T08:35:24.983Z,6.20
2022-07-29T08:37:55.479Z,8.05
2022-07-29T08:40:32.171Z,7.00
2022-07-29T08:43:08.189Z,5.70
2022-07-29T08:45:48.580Z,11.65
2022-07-29T08:48:20.433Z,2.97
2022-07-29T08:50:52.251Z,7.15
2022-07-29T08:53:22.652Z,3.53
2022-07-29T08:55:52.987Z,3.05
2022-07-29T08:58:25.071Z,4.45
2022-07-29T09:00:58.316Z,3.63
2022-07-29T09:03:30.881Z,2.65
2022-07-29T09:06:02.492Z,3.95
2022-07-29T09:08:34.119Z,11.43
2022-07-29T09:11:05.790Z,10.05
2022-07-29T09:13:37.066Z,8.85
2022-07-29T09:16:09.549Z,6.78
2022-07-29T09:18:41.374Z,2.85
2022-07-29T09:21:31.395Z,12.10
2022-07-29T09:24:14.895Z,4.97
2022-07-29T09:26:50.299Z,3.13
2022-07-29T09:29:24.546Z,6.60
2022-07-29T09:32:00.811Z,7.35
2022-07-29T09:34:33.828Z,6.65
2022-07-29T09:37:04.323Z,7.43
2022-07-29T09:39:37.281Z,1.55
2022-07-29T09:42:08.163Z,3.60
2022-07-29T09:44:51.035Z,6.70
2022-07-29T09:47:23.864Z,4.50
2022-07-29T09:49:56.949Z,1.30
2022-07-29T09:52:28.050Z,3.13
2022-07-29T09:55:13.610Z,0.82
2022-07-29T09:57:48.565Z,2.88
2022-07-29T10:00:22.622Z,0.50
2022-07-29T10:02:52.877Z,0.30
2022-07-29T10:05:26.966Z,2.45
2022-07-29T10:08:07.129Z,1.23
2022-07-29T10:10:38.358Z,3.25
2022-07-29T10:13:15.982Z,7.00
2022-07-29T10:15:48.047Z,8.52
2022-07-29T10:18:21.698Z,2.00
2022-07-29T10:20:52.004Z,4.03
2022-07-29T10:23:22.840Z,5.47
2022-07-29T10:25:53.325Z,2.17
2022-07-29T10:28:23.436Z,1.95
2022-07-29T10:30:54.525Z,4.40
2022-07-29T10:33:28.677Z,5.97
2022-07-29T10:36:11.302Z,4.30
2022-07-29T10:38:48.128Z,3.08
2022-07-29T10:41:32.377Z,8.70
2022-07-29T10:44:23.008Z,7.00
2022-07-29T10:46:54.438Z,5.20
2022-07-29T10:49:30.297Z,7.32
2022-07-29T10:52:02.143Z,9.23
2022-07-29T10:54:36.778Z,4.85
2022-07-29T10:57:16.384Z,6.63
2022-07-29T10:59:47.610Z,7.38
2022-07-29T11:02:41.568Z,4.80
2022-07-29T11:05:14.114Z,4.73
2022-07-29T11:08:04.043Z,7.18
2022-07-29T11:10:36.808Z,15.10
2022-07-29T11:13:09.215Z,7.75
2022-07-29T11:15:58.553Z,4.13
2022-07-29T11:18:28.704Z,14.55
2022-07-29T11:21:01.901Z,6.20
2022-07-29T11:23:37.909Z,10.00
2022-07-29T11:26:19.183Z,43.47
2022-07-29T11:29:09.656Z,43.85
2022-07-29T11:31:46.224Z,74.50
2022-07-29T11:34:31.811Z,24.23
2022-07-29T11:37:19.895Z,12.93
2022-07-29T11:40:02.011Z,9.63
2022-07-29T11:45:43.614Z,4.05
2022-07-29T11:48:29.247Z,7.15
2022-07-29T11:51:14.715Z,4.00
2022-07-29T11:53:52.653Z,5.05
2022-07-29T11:56:25.837Z,10.43
2022-07-29T11:59:17.731Z,5.57
2022-07-29T12:02:18.390Z,4.50
2022-07-29T12:04:53.759Z,11.15
2022-07-29T12:07:03.783Z,6.15
2022-07-29T12:07:32.641Z,11.82
2022-07-29T12:10:06.304Z,11.20
2022-07-29T12:12:36.975Z,3.67
2022-07-29T12:15:15.355Z,13.98
2022-07-29T12:17:45.976Z,12.60
2022-07-29T12:20:27.509Z,15.50
2022-07-29T12:25:32.848Z,9.05
2022-07-29T12:28:03.884Z,8.20
2022-07-29T12:30:48.162Z,9.13
2022-07-29T12:33:26.017Z,17.92
2022-07-29T12:36:07.306Z,13.40
2022-07-29T12:38:38.344Z,18.35
2022-07-29T12:41:08.527Z,3.85
2022-07-29T12:43:38.718Z,5.53
2022-07-29T12:46:16.810Z,8.50
2022-07-29T12:48:47.229Z,19.23
2022-07-29T12:51:19.035Z,7.43
2022-07-29T12:54:09.271Z,3.47
2022-07-29T12:56:44.509Z,2.83
2022-07-29T12:59:22.171Z,3.88
2022-07-29T13:01:53.068Z,5.47
2022-07-29T13:04:32.856Z,1.98
2022-07-29T13:07:15.364Z,5.65
2022-07-29T13:09:46.168Z,4.55
2022-07-29T13:12:16.778Z,1.80
2022-07-29T13:14:47.793Z,3.40
2022-07-29T13:17:22.892Z,2.05
2022-07-29T13:19:53.959Z,3.78
2022-07-29T13:22:24.956Z,2.05
2022-07-29T13:24:56.168Z,3.00
2022-07-29T13:27:26.802Z,5.78
2022-07-29T13:29:59.004Z,4.18
2022-07-29T13:32:30.185Z,4.47
2022-07-29T13:35:00.637Z,4.18
2022-07-29T13:37:33.400Z,7.88
2022-07-29T13:40:05.205Z,18.50
2022-07-29T13:42:36.224Z,12.63
2022-07-29T13:45:07.041Z,19.35
2022-07-29T13:47:37.535Z,21.10
2022-07-29T13:50:08.083Z,13.63
2022-07-29T13:52:40.300Z,15.45
2022-07-29T13:55:11.087Z,11.07
2022-07-29T13:57:41.437Z,8.07
2022-07-29T14:00:12.434Z,15.23
2022-07-29T14:02:43.468Z,11.20
2022-07-29T14:05:13.916Z,11.23
2022-07-29T14:07:44.648Z,7.25
2022-07-29T14:10:18.456Z,2.47
2022-07-29T14:12:51.129Z,5.95
2022-07-29T14:15:22.558Z,5.25
2022-07-29T14:17:53.027Z,4.03
2022-07-29T14:20:23.594Z,4.40
2022-07-29T14:22:54.037Z,4.68
2022-07-29T14:25:25.912Z,14.13
2022-07-29T14:27:56.516Z,4.93
2022-07-29T14:30:29.415Z,6.53
2022-07-29T14:32:59.676Z,7.55
2022-07-29T14:35:30.114Z,7.00
2022-07-29T14:38:00.606Z,6.32
2022-07-29T14:40:30.630Z,4.88
2022-07-29T14:43:00.769Z,6.28
2022-07-29T14:45:30.956Z,8.38
2022-07-29T14:48:02.054Z,11.85
2022-07-29T14:50:32.511Z,5.13
2022-07-29T14:53:03.115Z,8.13
2022-07-29T14:55:33.543Z,9.75
2022-07-29T14:58:10.903Z,10.45
2022-07-29T15:00:44.446Z,10.80
2022-07-29T15:03:24.067Z,6.50
2022-07-29T15:05:54.852Z,6.13
2022-07-29T15:08:25.174Z,11.10
2022-07-29T15:10:55.670Z,6.30
2022-07-29T15:13:26.081Z,8.15
2022-07-29T15:16:00.084Z,10.50
2022-07-29T15:18:30.616Z,7.15
2022-07-29T15:21:04.054Z,6.55
2022-07-29T15:23:34.664Z,6.00
2022-07-29T15:26:05.388Z,8.48
2022-07-29T15:28:35.879Z,10.88
2022-07-29T15:31:06.330Z,11.48
2022-07-29T15:33:36.622Z,9.02
2022-07-29T15:36:35.642Z,8.43
2022-07-29T15:39:40.122Z,8.30
2022-07-29T15:42:11.615Z,9.25
2022-07-29T15:44:42.020Z,7.03
2022-07-29T15:47:12.766Z,11.20
2022-07-29T15:49:48.756Z,9.13
2022-07-29T15:52:26.202Z,14.18
2022-07-29T15:54:59.193Z,9.55
2022-07-29T15:57:29.500Z,8.30
2022-07-29T16:00:00.118Z,7.13
2022-07-29T16:02:30.801Z,8.35
2022-07-29T16:05:01.044Z,9.82
2022-07-29T16:07:32.728Z,7.95
2022-07-29T16:10:05.045Z,11.40
2022-07-29T16:12:35.372Z,7.13
2022-07-29T16:15:09.731Z,6.15
2022-07-29T16:17:41.348Z,6.45
2022-07-29T16:20:13.766Z,5.18
2022-07-29T16:22:44.473Z,7.68
2022-07-29T16:25:15.017Z,2.13
2022-07-29T16:27:45.197Z,4.50
2022-07-29T16:30:15.437Z,4.43
2022-07-29T16:32:45.607Z,4.72
2022-07-29T16:35:15.816Z,3.50
2022-07-29T16:37:46.284Z,3.75
2022-07-29T16:40:16.644Z,3.70
2022-07-29T16:42:47.509Z,4.75
2022-07-29T16:45:20.996Z,3.33
2022-07-29T16:47:51.751Z,2.83
2022-07-29T16:50:23.078Z,3.38
2022-07-29T16:52:53.460Z,2.67
2022-07-29T16:55:24.026Z,2.15
2022-07-29T16:57:54.417Z,3.53
2022-07-29T17:00:24.995Z,1.63
2022-07-29T17:02:55.798Z,1.73
2022-07-29T17:05:26.317Z,7.20
2022-07-29T17:07:57.434Z,2.38
2022-07-29T17:10:28.013Z,2.10
2022-07-29T17:12:58.175Z,3.10
2022-07-29T17:15:28.672Z,2.65
2022-07-29T17:18:00.068Z,4.35
2022-07-29T17:20:30.859Z,2.35
2022-07-29T17:23:00.953Z,2.25
2022-07-29T17:25:31.311Z,1.80
2022-07-29T17:28:01.579Z,1.25
2022-07-29T17:30:32.071Z,1.75
2022-07-29T17:33:03.151Z,3.30
2022-07-29T17:35:51.897Z,0.70
2022-07-29T17:38:22.528Z,1.75
2022-07-29T17:40:52.737Z,1.88
2022-07-29T17:43:23.051Z,1.38
2022-07-29T17:45:56.865Z,2.38
2022-07-29T17:48:30.127Z,2.72
2022-07-29T17:51:01.031Z,3.38
2022-07-29T17:53:34.270Z,9.48
2022-07-29T17:56:05.220Z,1.55
2022-07-29T17:58:35.643Z,2.90
2022-07-29T18:01:06.059Z,2.00
2022-07-29T18:03:37.199Z,1.70
2022-07-29T18:06:08.768Z,1.75
2022-07-29T18:08:40.299Z,1.80
2022-07-29T18:11:10.974Z,2.75
2022-07-29T18:13:45.274Z,2.15
2022-07-29T18:16:15.855Z,1.63
2022-07-29T18:18:46.889Z,2.42
2022-07-29T18:21:17.572Z,2.13
2022-07-29T18:24:07.877Z,1.27
2022-07-29T18:26:39.359Z,1.67
2022-07-29T18:29:10.532Z,1.83
2022-07-29T18:31:42.293Z,1.92
2022-07-29T18:34:12.532Z,2.20
2022-07-29T18:36:43.354Z,3.40
2022-07-29T18:39:20.282Z,1.48
2022-07-29T18:41:52.889Z,4.40
2022-07-29T18:44:23.419Z,2.58
2022-07-29T18:46:54.351Z,3.17
2022-07-29T18:49:24.979Z,3.30
2022-07-29T18:51:55.624Z,4.18
2022-07-29T18:54:26.160Z,5.05
2022-07-29T18:56:56.927Z,3.83
2022-07-29T18:59:27.322Z,4.22
2022-07-29T19:01:57.930Z,3.83
2022-07-29T19:04:28.093Z,4.07
2022-07-29T19:07:03.830Z,3.67
2022-07-29T19:09:34.029Z,4.68
2022-07-29T19:12:04.673Z,3.92
2022-07-29T19:14:34.951Z,3.15
2022-07-29T19:17:05.461Z,4.53
2022-07-29T19:19:35.582Z,2.97
2022-07-29T19:22:06.141Z,2.00
2022-07-29T19:24:36.584Z,1.45
2022-07-29T19:27:07.014Z,2.22
2022-07-29T19:29:37.467Z,2.50
2022-07-29T19:32:07.745Z,1.38
2022-07-29T19:34:37.898Z,6.05
2022-07-29T19:37:07.997Z,1.52
2022-07-29T19:39:38.077Z,1.55
2022-07-29T19:42:09.426Z,1.70
2022-07-29T19:44:39.928Z,2.33
2022-07-29T19:47:10.581Z,1.50
2022-07-29T19:49:47.675Z,1.90
2022-07-29T19:52:17.901Z,1.85
2022-07-29T19:54:48.143Z,2.67
2022-07-29T19:57:18.239Z,3.65
2022-07-29T19:59:49.114Z,1.90
2022-07-29T20:02:19.960Z,2.53
2022-07-29T20:04:50.311Z,4.60
2022-07-29T20:07:20.656Z,6.05
2022-07-29T20:09:50.840Z,3.00
2022-07-29T20:12:20.970Z,4.68
2022-07-29T20:14:51.586Z,3.47
2022-07-29T20:17:23.502Z,1.65
2022-07-29T20:19:54.307Z,7.53
2022-07-29T20:22:27.350Z,5.43
2022-07-29T20:24:58.231Z,4.07
2022-07-29T20:27:29.180Z,3.08
2022-07-29T20:29:59.510Z,3.92
2022-07-29T20:32:29.592Z,3.47
2022-07-29T20:34:59.852Z,3.70
2022-07-29T20:37:30.920Z,8.27
2022-07-29T20:40:00.998Z,2.40
2022-07-29T20:42:31.148Z,2.90
2022-07-29T20:45:04.366Z,6.72
2022-07-29T20:47:37.905Z,3.88
2022-07-29T20:50:08.299Z,7.25
2022-07-29T20:52:40.628Z,8.25
2022-07-29T20:55:11.161Z,5.28
2022-07-29T20:57:41.302Z,7.20
2022-07-29T21:00:18.877Z,5.70
2022-07-29T21:02:50.033Z,2.53
2022-07-29T21:05:20.404Z,2.97
2022-07-29T21:07:51.280Z,2.88
2022-07-29T21:10:24.008Z,3.45
2022-07-29T21:12:54.484Z,3.05
2022-07-29T21:15:25.165Z,2.42
2022-07-29T21:18:07.105Z,3.00
2022-07-29T21:20:37.809Z,2.17
2022-07-29T21:23:08.925Z,8.38
2022-07-29T21:25:40.162Z,5.53
2022-07-29T21:28:30.161Z,1.90
2022-07-29T21:31:01.364Z,1.23
2022-07-29T21:33:32.516Z,2.80
2022-07-29T21:38:54.678Z,1.50
2022-07-29T21:41:25.337Z,2.58
2022-07-29T21:43:55.835Z,3.35
2022-07-29T21:46:29.763Z,1.30
2022-07-29T21:49:00.814Z,1.65
2022-07-29T21:51:31.407Z,4.05
2022-07-29T21:54:01.587Z,3.38
2022-07-29T21:56:31.884Z,3.60
2022-07-29T21:59:03.323Z,2.53
2022-07-29T22:01:39.448Z,2.03
2022-07-29T22:06:40.982Z,1.92
2022-07-29T22:09:11.773Z,2.55
2022-07-29T22:11:43.271Z,0.88
2022-07-29T22:14:13.652Z,1.35
2022-07-29T22:16:43.863Z,5.97
2022-07-29T22:19:15.148Z,5.18
2022-07-29T22:21:46.040Z,1.10
2022-07-29T22:24:17.304Z,2.75
2022-07-29T22:26:47.945Z,3.67
2022-07-29T22:29:20.081Z,1.50
2022-07-29T22:31:50.456Z,1.98
2022-07-29T22:34:20.729Z,2.53
2022-07-29T22:36:54.090Z,6.95
2022-07-29T22:39:24.477Z,4.43
2022-07-29T22:41:55.109Z,4.40
2022-07-29T22:44:25.222Z,2.55
2022-07-29T22:46:55.307Z,2.67
2022-07-29T22:49:28.973Z,3.13
2022-07-29T22:51:59.117Z,3.50
2022-07-29T22:54:29.394Z,5.03
2022-07-29T22:56:59.812Z,4.50
2022-07-29T22:59:30.503Z,7.43
2022-07-29T23:02:00.671Z,4.97
2022-07-29T23:04:30.827Z,3.90
2022-07-29T23:07:01.452Z,3.72
2022-07-29T23:09:31.810Z,8.23
2022-07-29T23:12:01.937Z,2.58
2022-07-29T23:14:32.044Z,3.20
2022-07-29T23:17:02.707Z,2.53
2022-07-29T23:19:33.217Z,3.15
2022-07-29T23:22:03.475Z,9.30
2022-07-29T23:24:33.588Z,10.13
2022-07-29T23:27:03.892Z,4.30
2022-07-29T23:29:36.815Z,6.45
2022-07-29T23:32:07.930Z,5.05
2022-07-29T23:34:38.560Z,5.35
2022-07-29T23:37:08.994Z,4.88
2022-07-29T23:39:39.821Z,6.32
2022-07-29T23:42:10.307Z,5.15
2022-07-29T23:44:40.435Z,7.72
2022-07-29T23:47:10.714Z,5.22
2022-07-29T23:49:41.286Z,5.68
2022-07-29T23:52:13.045Z,4.53
2022-07-29T23:54:43.741Z,7.60
2022-07-29T23:57:14.053Z,4.60
2022-07-29T23:59:44.528Z,7.88
